Time;durP1;ratioP1;P1;durP2;ratioP2;P2;SDS_P1;SDS_P2;PMS_P1;PMS_P2;Temp;Humidity;BMP_temperature;BMP_pressure;BME280_temperature;BME280_humidity;BME280_pressure;Samples;Min_cycle;Max_cycle;Signal;HPM_P1;HPM_P2
2023/03/14 00:01:17;;;;;;;34.47;32.17;;;5.70;99.90;;;;;;5207701;28;20030;-72
2023/03/14 00:03:48;;;;;;;34.30;32.20;;;5.80;99.90;;;;;;5207848;28;20474;-71
2023/03/14 00:06:19;;;;;;;35.88;33.65;;;6.00;99.90;;;;;;5206699;28;20099;-72
2023/03/14 00:08:51;;;;;;;36.22;33.75;;;6.10;99.90;;;;;;5207179;28;20561;-72
2023/03/14 00:11:23;;;;;;;35.65;33.42;;;5.60;99.90;;;;;;5207600;28;20045;-70
2023/03/14 00:13:53;;;;;;;33.65;31.42;;;6.20;99.90;;;;;;5206995;28;20043;-69
2023/03/14 00:16:24;;;;;;;34.55;32.47;;;6.00;99.90;;;;;;5206367;28;20469;-71
2023/03/14 00:18:55;;;;;;;36.40;33.97;;;5.90;99.90;;;;;;5207411;28;20100;-72
2023/03/14 00:21:26;;;;;;;35.20;32.90;;;5.70;99.90;;;;;;5207329;28;20021;-72
2023/03/14 00:23:57;;;;;;;35.67;33.28;;;6.10;99.90;;;;;;5207149;28;20025;-68
2023/03/14 00:26:28;;;;;;;35.65;33.30;;;6.00;99.90;;;;;;5207128;28;20036;-72
2023/03/14 00:28:59;;;;;;;37.15;34.67;;;5.80;99.90;;;;;;5207111;28;20474;-72
2023/03/14 00:31:29;;;;;;;36.28;33.75;;;5.90;99.90;;;;;;5207038;28;20091;-72
2023/03/14 00:34:00;;;;;;;36.45;33.85;;;5.90;99.90;;;;;;5206796;28;20037;-72
2023/03/14 00:36:31;;;;;;;36.63;33.92;;;6.30;99.90;;;;;;5207165;28;20079;-70
2023/03/14 00:39:02;;;;;;;36.35;33.80;;;6.40;99.90;;;;;;5206756;28;20354;-71
2023/03/14 00:41:33;;;;;;;38.63;35.78;;;6.70;99.90;;;;;;5206960;28;20647;-69
2023/03/14 00:44:04;;;;;;;38.92;36.13;;;6.50;99.90;;;;;;5206695;28;20025;-71
2023/03/14 00:46:35;;;;;;;37.17;34.70;;;6.50;99.90;;;;;;5205554;28;20090;-68
2023/03/14 00:49:06;;;;;;;36.38;33.97;;;6.40;99.90;;;;;;5206761;28;20079;-69
2023/03/14 00:51:37;;;;;;;35.58;33.28;;;6.50;99.90;;;;;;5206773;28;20480;-72
2023/03/14 00:54:08;;;;;;;31.15;29.10;;;6.60;99.90;;;;;;5205465;28;20060;-72
2023/03/14 00:56:38;;;;;;;31.92;29.88;;;6.90;99.90;;;;;;5206476;28;20022;-72
2023/03/14 00:59:09;;;;;;;32.25;30.02;;;6.90;99.90;;;;;;5206384;28;20029;-72
2023/03/14 01:01:41;;;;;;;30.88;28.85;;;6.80;99.90;;;;;;5206025;28;20034;-72
2023/03/14 01:04:13;;;;;;;32.10;30.02;;;6.90;99.90;;;;;;5205118;28;20854;-72
2023/03/14 01:06:44;;;;;;;31.30;29.30;;;6.80;99.90;;;;;;5206383;28;20125;-71
2023/03/14 01:09:17;;;;;;;31.95;29.88;;;7.00;99.90;;;;;;5206088;28;20503;-72
2023/03/14 01:11:48;;;;;;;33.13;30.95;;;6.70;99.90;;;;;;5206170;28;20124;-72
2023/03/14 01:14:19;;;;;;;32.17;30.00;;;7.10;99.90;;;;;;5206224;28;20107;-68
2023/03/14 01:16:50;;;;;;;29.90;28.10;;;6.70;99.90;;;;;;5204795;28;20389;-71
2023/03/14 01:19:21;;;;;;;33.05;30.95;;;7.00;99.90;;;;;;5206328;28;20072;-71
2023/03/14 01:21:52;;;;;;;33.50;31.33;;;6.80;99.90;;;;;;5206291;28;20044;-71
2023/03/14 01:24:22;;;;;;;33.47;31.23;;;6.70;99.90;;;;;;5205026;28;20036;-68
2023/03/14 01:26:53;;;;;;;33.25;31.10;;;6.80;99.90;;;;;;5206049;28;20022;-72
2023/03/14 01:29:24;;;;;;;29.77;27.88;;;6.90;99.90;;;;;;5206136;28;20029;-71
2023/03/14 01:31:55;;;;;;;31.33;29.42;;;6.90;99.90;;;;;;5204840;28;20024;-72
2023/03/14 01:34:26;;;;;;;36.65;33.90;;;6.80;99.90;;;;;;5206343;28;20055;-72
2023/03/14 01:36:57;;;;;;;32.00;29.83;;;6.40;99.90;;;;;;5206251;28;20030;-72
2023/03/14 01:39:28;;;;;;;30.58;28.48;;;6.60;99.90;;;;;;5204210;28;20030;-72
2023/03/14 01:42:00;;;;;;;33.40;30.83;;;6.50;99.90;;;;;;5205967;28;20026;-68
2023/03/14 01:45:04;;;;;;;34.13;31.55;;;6.30;99.90;;;;;;5205937;28;20032;-72
2023/03/14 01:47:35;;;;;;;32.60;30.30;;;6.40;99.90;;;;;;5172102;28;20064;-71
2023/03/14 01:50:10;;;;;;;33.15;31.15;;;6.20;99.90;;;;;;5205353;28;20037;-70
2023/03/14 01:52:48;;;;;;;32.10;29.98;;;6.30;99.90;;;;;;5205728;28;20116;-71
2023/03/14 01:55:23;;;;;;;37.35;34.85;;;6.40;99.90;;;;;;5205670;28;20023;-72
2023/03/14 01:57:59;;;;;;;33.67;31.45;;;6.40;99.90;;;;;;5205643;28;20025;-72
2023/03/14 02:00:30;;;;;;;33.55;31.35;;;6.40;99.90;;;;;;5205627;28;20036;-72
2023/03/14 02:03:12;;;;;;;32.85;30.75;;;6.00;99.90;;;;;;5205721;28;20025;-68
2023/03/14 02:05:46;;;;;;;29.67;27.67;;;6.20;99.90;;;;;;5205642;28;20048;-72
2023/03/14 02:08:20;;;;;;;32.05;30.20;;;6.20;99.90;;;;;;5205307;28;20041;-71
2023/03/14 02:10:51;;;;;;;31.75;29.80;;;6.00;99.90;;;;;;5205507;28;20034;-72
2023/03/14 02:13:22;;;;;;;33.50;31.45;;;6.20;99.90;;;;;;5204092;28;20034;-72
2023/03/14 02:15:53;;;;;;;31.13;29.13;;;5.70;99.90;;;;;;5205467;28;20095;-72
2023/03/14 02:18:24;;;;;;;34.83;32.63;;;6.20;99.90;;;;;;5205408;28;20034;-70
2023/03/14 02:21:05;;;;;;;34.97;32.63;;;5.80;99.90;;;;;;5205398;28;20071;-72
2023/03/14 02:23:57;;;;;;;33.50;31.55;;;5.80;99.90;;;;;;5205426;28;20033;-72
2023/03/14 02:26:42;;;;;;;35.22;32.80;;;5.60;99.90;;;;;;5205430;28;20058;-71
2023/03/14 02:29:12;;;;;;;32.95;31.05;;;5.80;99.90;;;;;;5206821;28;20079;-69
2023/03/14 02:31:43;;;;;;;33.30;31.33;;;5.80;99.90;;;;;;5209367;28;20512;-72
2023/03/14 02:34:14;;;;;;;34.25;32.20;;;5.40;99.90;;;;;;5209317;28;20551;-71
2023/03/14 02:36:45;;;;;;;33.25;31.35;;;5.50;99.90;;;;;;5209461;28;20057;-72
2023/03/14 02:39:26;;;;;;;34.88;32.75;;;5.70;99.90;;;;;;5209039;28;20025;-72
2023/03/14 02:41:57;;;;;;;36.05;33.67;;;5.30;99.90;;;;;;5209140;28;20056;-68
2023/03/14 02:44:28;;;;;;;31.90;30.00;;;5.60;99.90;;;;;;5209070;28;20117;-72
2023/03/14 02:46:58;;;;;;;34.22;32.13;;;5.60;99.90;;;;;;5209151;28;20026;-72
2023/03/14 02:49:32;;;;;;;36.67;34.47;;;5.60;99.90;;;;;;5209046;28;20029;-71
2023/03/14 02:52:04;;;;;;;34.53;32.25;;;5.60;99.90;;;;;;5209121;28;20441;-69
2023/03/14 02:54:34;;;;;;;34.20;32.17;;;5.40;99.90;;;;;;5209246;28;20037;-71
2023/03/14 02:57:05;;;;;;;31.77;29.67;;;5.40;99.90;;;;;;5208990;28;20182;-71
2023/03/14 02:59:36;;;;;;;32.53;30.63;;;5.40;99.90;;;;;;5208553;28;20029;-71
2023/03/14 03:02:07;;;;;;;32.53;30.42;;;5.50;99.90;;;;;;5208864;28;20022;-72
2023/03/14 03:04:38;;;;;;;32.33;30.13;;;5.50;99.90;;;;;;5208876;28;20096;-72
2023/03/14 03:07:09;;;;;;;31.90;29.55;;;5.30;99.90;;;;;;5208738;28;20105;-72
2023/03/14 03:09:39;;;;;;;32.00;29.92;;;5.10;99.90;;;;;;5208365;28;20060;-71
2023/03/14 03:12:10;;;;;;;28.02;26.08;;;5.20;99.90;;;;;;5208671;28;20030;-72
2023/03/14 03:14:41;;;;;;;27.02;25.45;;;4.90;99.90;;;;;;5208835;28;20033;-71
2023/03/14 03:17:12;;;;;;;27.30;25.35;;;4.40;99.90;;;;;;5208536;28;20376;-72
2023/03/14 03:19:43;;;;;;;28.95;27.13;;;4.70;99.90;;;;;;5207876;28;20540;-68
2023/03/14 03:22:14;;;;;;;26.70;24.80;;;3.90;99.90;;;;;;5207185;28;20067;-69
2023/03/14 03:24:45;;;;;;;26.30;24.65;;;4.50;99.90;;;;;;5208431;28;20029;-72
2023/03/14 03:27:16;;;;;;;26.52;24.83;;;4.30;99.90;;;;;;5208319;28;20026;-71
2023/03/14 03:29:47;;;;;;;27.05;25.17;;;4.20;99.90;;;;;;5206779;28;20036;-72
2023/03/14 03:32:18;;;;;;;26.35;24.55;;;4.40;99.90;;;;;;5196864;28;20022;-72
2023/03/14 03:34:49;;;;;;;25.00;23.23;;;4.30;99.90;;;;;;5195868;28;20042;-72
2023/03/14 03:37:20;;;;;;;29.52;27.52;;;3.90;99.90;;;;;;5197947;28;20025;-71
2023/03/14 03:39:51;;;;;;;29.70;27.88;;;3.70;99.90;;;;;;5196518;28;20087;-72
2023/03/14 03:42:22;;;;;;;38.08;34.95;;;3.90;99.90;;;;;;5197184;28;20033;-69
2023/03/14 03:44:53;;;;;;;42.17;38.28;;;3.80;99.90;;;;;;5196734;28;20022;-71
2023/03/14 03:47:24;;;;;;;42.35;38.80;;;3.60;99.90;;;;;;5197135;28;20385;-73
2023/03/14 03:49:55;;;;;;;35.67;32.83;;;3.80;99.90;;;;;;5197852;28;20028;-71
2023/03/14 03:52:26;;;;;;;34.58;31.88;;;4.10;99.90;;;;;;5197370;28;20092;-71
2023/03/14 03:54:56;;;;;;;31.25;28.92;;;3.70;99.90;;;;;;5196278;28;20018;-72
2023/03/14 03:57:27;;;;;;;33.03;30.33;;;3.10;99.90;;;;;;5196237;28;20108;-72
2023/03/14 03:59:58;;;;;;;31.33;28.92;;;3.50;99.90;;;;;;5197705;28;20014;-71
2023/03/14 04:02:29;;;;;;;28.65;26.55;;;3.70;99.90;;;;;;5197824;28;20026;-72
2023/03/14 04:05:00;;;;;;;28.55;26.35;;;4.00;99.90;;;;;;5197773;28;20057;-69
2023/03/14 04:07:34;;;;;;;37.58;33.88;;;3.80;99.90;;;;;;5200984;28;20043;-72
2023/03/14 04:10:05;;;;;;;44.10;38.10;;;3.30;99.90;;;;;;5194506;28;20128;-71
2023/03/14 04:12:36;;;;;;;63.10;43.58;;;3.50;99.90;;;;;;5196080;28;20022;-70
2023/03/14 04:15:08;;;;;;;49.90;43.08;;;3.30;99.90;;;;;;5197555;28;20030;-72
2023/03/14 04:17:38;;;;;;;37.15;33.55;;;2.80;99.90;;;;;;5196126;28;20048;-68
2023/03/14 04:20:13;;;;;;;45.13;39.00;;;3.20;99.90;;;;;;5196053;28;20057;-73
2023/03/14 04:22:43;;;;;;;41.35;37.55;;;3.20;99.90;;;;;;5196576;28;20018;-68
2023/03/14 04:25:17;;;;;;;39.53;36.00;;;3.40;99.90;;;;;;5197294;28;20053;-71
2023/03/14 04:27:48;;;;;;;39.55;35.88;;;3.50;99.90;;;;;;5195738;28;20018;-71
2023/03/14 04:30:19;;;;;;;40.33;36.08;;;2.90;99.90;;;;;;5190886;28;20032;-69
2023/03/14 04:32:49;;;;;;;47.35;42.55;;;3.10;99.90;;;;;;5186543;28;20452;-72
2023/03/14 04:35:20;;;;;;;40.80;36.78;;;3.20;99.90;;;;;;5186811;28;20026;-71
2023/03/14 04:37:51;;;;;;;41.15;37.33;;;3.00;99.90;;;;;;5185248;28;20444;-74
2023/03/14 04:40:22;;;;;;;45.80;40.97;;;2.80;99.90;;;;;;5186533;28;20485;-74
2023/03/14 04:42:53;;;;;;;54.63;48.45;;;2.60;99.90;;;;;;5190345;28;20117;-71
2023/03/14 04:45:24;;;;;;;59.80;51.90;;;3.00;99.90;;;;;;5189069;28;20026;-71
2023/03/14 04:47:55;;;;;;;56.60;50.58;;;3.20;99.90;;;;;;5196738;28;20033;-73
2023/03/14 04:50:25;;;;;;;62.10;51.25;;;3.10;99.90;;;;;;5195513;28;20013;-72
2023/03/14 04:52:56;;;;;;;52.95;47.58;;;3.30;99.90;;;;;;5196343;28;20040;-70
2023/03/14 04:55:27;;;;;;;50.95;45.22;;;3.30;99.90;;;;;;5197923;28;20018;-72
2023/03/14 04:57:58;;;;;;;56.40;50.13;;;3.60;99.90;;;;;;5193436;28;20093;-73
2023/03/14 05:00:29;;;;;;;56.78;49.22;;;3.70;99.90;;;;;;5184840;28;20030;-73
2023/03/14 05:03:00;;;;;;;53.90;48.20;;;3.80;99.90;;;;;;5186200;28;20029;-74
2023/03/14 05:05:31;;;;;;;49.75;44.78;;;3.50;99.90;;;;;;5186112;28;20041;-74
2023/03/14 05:08:02;;;;;;;49.75;44.47;;;3.70;99.90;;;;;;5184469;28;20041;-73
2023/03/14 05:10:33;;;;;;;44.92;40.33;;;4.00;99.90;;;;;;5185909;28;20038;-74
2023/03/14 05:13:04;;;;;;;43.47;39.30;;;4.00;99.90;;;;;;5185929;28;20042;-74
2023/03/14 05:15:35;;;;;;;38.15;34.70;;;4.10;99.90;;;;;;5185930;28;20026;-74
2023/03/14 05:18:05;;;;;;;37.80;34.45;;;4.30;99.90;;;;;;5185857;28;20466;-72
2023/03/14 05:20:36;;;;;;;49.85;45.15;;;4.00;99.90;;;;;;5185822;28;20018;-74
2023/03/14 05:23:07;;;;;;;62.58;56.08;;;4.10;99.90;;;;;;5185836;28;20022;-72
2023/03/14 05:25:38;;;;;;;51.28;46.22;;;4.30;99.90;;;;;;5185790;28;20028;-73
2023/03/14 05:28:09;;;;;;;43.92;39.50;;;4.30;99.90;;;;;;5185863;28;20733;-73
2023/03/14 05:30:40;;;;;;;48.80;43.88;;;4.50;99.90;;;;;;5186015;28;20105;-73
2023/03/14 05:33:10;;;;;;;42.65;38.63;;;4.60;99.90;;;;;;5185926;28;20120;-73
2023/03/14 05:35:42;;;;;;;40.22;36.72;;;4.50;99.90;;;;;;5185725;28;20110;-70
2023/03/14 05:38:13;;;;;;;36.85;33.85;;;4.80;99.90;;;;;;5185574;28;20026;-73
2023/03/14 05:40:45;;;;;;;36.58;33.28;;;5.00;99.90;;;;;;5185628;28;20065;-73
2023/03/14 05:43:16;;;;;;;41.38;37.95;;;4.90;99.90;;;;;;5185625;28;20140;-70
2023/03/14 05:45:48;;;;;;;39.92;36.67;;;5.40;99.90;;;;;;5185654;28;20064;-69
2023/03/14 05:48:19;;;;;;;37.25;34.58;;;5.60;99.90;;;;;;5184043;28;20022;-71
2023/03/14 05:50:59;;;;;;;39.83;36.97;;;6.20;99.90;;;;;;5184298;28;20497;-68
2023/03/14 05:53:30;;;;;;;38.45;35.70;;;7.00;99.90;;;;;;5185317;28;20038;-71
2023/03/14 05:56:01;;;;;;;32.78;30.58;;;7.50;99.90;;;;;;5185119;28;20028;-71
2023/03/14 05:58:31;;;;;;;33.03;30.80;;;7.10;99.90;;;;;;5185326;28;20030;-69
2023/03/14 06:01:06;;;;;;;33.42;31.25;;;7.10;99.90;;;;;;5185293;28;20358;-71
2023/03/14 06:03:37;;;;;;;32.53;30.45;;;7.00;99.90;;;;;;5185736;28;20036;-68
2023/03/14 06:06:08;;;;;;;30.83;28.75;;;6.90;99.90;;;;;;5189506;28;20018;-68
2023/03/14 06:08:39;;;;;;;29.58;27.77;;;7.10;99.90;;;;;;5189166;28;20046;-74
2023/03/14 06:11:09;;;;;;;31.45;28.58;;;7.10;99.90;;;;;;5189313;28;20363;-68
2023/03/14 06:13:40;;;;;;;31.40;29.30;;;7.30;99.90;;;;;;5189320;28;20046;-74
2023/03/14 06:16:11;;;;;;;30.65;28.73;;;7.20;99.90;;;;;;5189361;28;20022;-74
2023/03/14 06:18:42;;;;;;;29.35;27.45;;;7.80;99.90;;;;;;5189148;28;20095;-74
2023/03/14 06:21:13;;;;;;;27.83;25.98;;;7.90;99.90;;;;;;5189063;28;20576;-75
2023/03/14 06:23:44;;;;;;;30.02;28.13;;;8.10;99.90;;;;;;5187167;28;20450;-69
2023/03/14 06:26:14;;;;;;;29.35;27.55;;;8.40;99.90;;;;;;5189151;28;20026;-74
2023/03/14 06:28:45;;;;;;;28.95;26.88;;;8.20;99.90;;;;;;5189079;28;20032;-74
2023/03/14 06:31:17;;;;;;;30.60;28.35;;;8.10;99.90;;;;;;5189217;28;20050;-68
2023/03/14 06:33:47;;;;;;;30.45;28.35;;;7.90;99.90;;;;;;5189172;28;20038;-74
2023/03/14 06:36:18;;;;;;;30.60;28.33;;;8.60;99.90;;;;;;5189130;28;20022;-73
2023/03/14 06:38:49;;;;;;;29.98;28.35;;;8.60;99.90;;;;;;5188167;28;20026;-75
2023/03/14 06:41:20;;;;;;;32.78;30.75;;;8.60;99.90;;;;;;5188587;28;20040;-75
2023/03/14 06:43:51;;;;;;;30.05;28.27;;;8.20;99.90;;;;;;5188724;28;20018;-68
2023/03/14 06:46:22;;;;;;;30.88;28.98;;;8.00;99.90;;;;;;5188723;28;20080;-68
2023/03/14 06:48:53;;;;;;;32.60;30.67;;;7.70;99.90;;;;;;5187395;28;20137;-71
2023/03/14 06:51:24;;;;;;;34.33;32.33;;;8.20;99.90;;;;;;5188572;28;20064;-74
2023/03/14 06:53:55;;;;;;;32.95;31.08;;;8.00;99.90;;;;;;5188521;28;20133;-75
2023/03/14 06:56:26;;;;;;;32.67;30.77;;;8.20;99.90;;;;;;5188562;28;20468;-74
2023/03/14 06:58:57;;;;;;;33.75;31.75;;;8.60;99.90;;;;;;5188545;28;20075;-75
2023/03/14 07:01:30;;;;;;;33.17;31.15;;;9.20;99.90;;;;;;5188483;28;20474;-75
2023/03/14 07:04:01;;;;;;;29.83;28.13;;;9.40;99.90;;;;;;5187169;28;20385;-74
2023/03/14 07:06:33;;;;;;;31.92;29.92;;;9.20;99.90;;;;;;5187112;28;20030;-75
2023/03/14 07:09:04;;;;;;;34.10;31.88;;;9.00;99.90;;;;;;5188159;28;20112;-73
2023/03/14 07:11:35;;;;;;;31.45;29.65;;;8.90;99.90;;;;;;5188250;28;20103;-75
2023/03/14 07:14:06;;;;;;;33.55;31.60;;;8.80;99.90;;;;;;5188142;28;20064;-74
2023/03/14 07:16:37;;;;;;;32.65;30.73;;;8.70;99.90;;;;;;5187883;28;20040;-75
2023/03/14 07:19:08;;;;;;;33.05;30.92;;;8.40;99.90;;;;;;5188057;28;20042;-75
2023/03/14 07:21:39;;;;;;;31.08;29.30;;;8.50;99.90;;;;;;5188171;28;20033;-76
2023/03/14 07:24:10;;;;;;;31.83;29.75;;;8.40;99.90;;;;;;5188056;28;20018;-74
2023/03/14 07:26:41;;;;;;;30.80;28.92;;;8.60;99.90;;;;;;5186643;28;20044;-75
2023/03/14 07:29:11;;;;;;;29.67;27.98;;;8.90;99.90;;;;;;5189404;28;20441;-71
2023/03/14 07:31:42;;;;;;;29.50;27.80;;;9.30;99.90;;;;;;5191715;28;20452;-75
2023/03/14 07:34:13;;;;;;;28.77;26.90;;;9.20;99.90;;;;;;5189576;28;20581;-74
2023/03/14 07:36:44;;;;;;;27.27;25.52;;;9.20;99.90;;;;;;5207145;28;20544;-75
2023/03/14 07:39:15;;;;;;;26.70;25.17;;;9.10;99.90;;;;;;5206018;28;20037;-75
2023/03/14 07:41:46;;;;;;;25.38;23.92;;;9.10;99.90;;;;;;5208138;28;20033;-75
2023/03/14 07:44:16;;;;;;;28.80;27.15;;;9.00;99.90;;;;;;5205528;28;20036;-68
2023/03/14 07:46:47;;;;;;;27.98;26.02;;;9.00;99.90;;;;;;5206024;28;20032;-70
2023/03/14 07:49:18;;;;;;;23.77;22.23;;;9.50;99.90;;;;;;5205313;28;20103;-67
2023/03/14 07:51:50;;;;;;;24.70;23.13;;;10.20;99.90;;;;;;5206875;28;20785;-68
2023/03/14 07:54:20;;;;;;;24.30;22.80;;;10.10;99.90;;;;;;5206847;28;20095;-68
2023/03/14 07:56:52;;;;;;;24.95;23.38;;;10.70;99.90;;;;;;5207221;28;20083;-68
2023/03/14 07:59:22;;;;;;;26.17;24.42;;;10.70;99.90;;;;;;5207314;28;20112;-68
2023/03/14 08:01:53;;;;;;;27.45;25.88;;;11.10;99.90;;;;;;5207745;28;20034;-75
2023/03/14 08:04:24;;;;;;;27.38;25.75;;;10.80;99.90;;;;;;5207685;28;20033;-74
2023/03/14 08:06:55;;;;;;;27.20;25.35;;;11.20;99.90;;;;;;5207447;28;20033;-68
2023/03/14 08:09:26;;;;;;;24.42;23.02;;;10.10;99.90;;;;;;5204971;28;20072;-74
2023/03/14 08:11:57;;;;;;;22.63;21.15;;;9.20;99.90;;;;;;5204063;28;20555;-71
2023/03/14 08:14:29;;;;;;;25.10;23.40;;;9.40;99.90;;;;;;5203039;28;20083;-75
2023/03/14 08:17:00;;;;;;;26.35;24.65;;;9.70;99.90;;;;;;5207497;28;20025;-71
2023/03/14 08:19:31;;;;;;;26.33;24.65;;;9.80;99.90;;;;;;5207344;28;20702;-67
2023/03/14 08:22:02;;;;;;;24.50;23.10;;;10.70;99.90;;;;;;5207460;28;20053;-71
2023/03/14 08:24:33;;;;;;;25.27;23.77;;;11.10;99.90;;;;;;5207287;28;20029;-69
2023/03/14 08:27:04;;;;;;;23.02;21.63;;;10.60;99.90;;;;;;5205991;28;20155;-75
2023/03/14 08:29:35;;;;;;;23.88;22.38;;;10.30;99.90;;;;;;5206879;28;20120;-73
2023/03/14 08:32:06;;;;;;;25.95;23.90;;;10.20;99.90;;;;;;5207002;28;20029;-74
2023/03/14 08:34:37;;;;;;;23.25;21.88;;;10.60;99.90;;;;;;5206961;28;20512;-75
2023/03/14 08:37:08;;;;;;;24.83;23.42;;;10.90;99.90;;;;;;5206889;28;20110;-74
2023/03/14 08:39:39;;;;;;;24.98;23.67;;;10.50;99.90;;;;;;5206771;28;20060;-72
2023/03/14 08:42:09;;;;;;;23.60;22.20;;;10.00;99.90;;;;;;5206874;28;20041;-74
2023/03/14 08:44:40;;;;;;;27.35;25.73;;;11.20;99.90;;;;;;5207064;28;20029;-74
2023/03/14 08:47:11;;;;;;;25.75;24.25;;;10.70;99.90;;;;;;5206011;28;20056;-75
2023/03/14 08:49:42;;;;;;;27.02;25.52;;;11.20;99.90;;;;;;5206882;28;20021;-74
2023/03/14 08:52:13;;;;;;;28.85;27.02;;;11.50;99.90;;;;;;5205396;28;20507;-70
2023/03/14 08:54:44;;;;;;;34.03;32.13;;;11.00;99.90;;;;;;5206682;28;20033;-72
2023/03/14 08:57:15;;;;;;;28.55;26.85;;;10.70;99.90;;;;;;5206898;28;20473;-73
2023/03/14 08:59:45;;;;;;;27.83;26.08;;;10.40;99.90;;;;;;5207001;28;20022;-76
2023/03/14 09:02:16;;;;;;;25.45;23.95;;;10.40;99.90;;;;;;5206364;28;20115;-69
2023/03/14 09:04:47;;;;;;;27.65;25.85;;;10.70;99.90;;;;;;5206424;28;20426;-67
2023/03/14 09:07:19;;;;;;;29.33;27.38;;;10.70;99.90;;;;;;5206574;28;20031;-76
2023/03/14 09:09:50;;;;;;;29.70;27.73;;;10.70;99.90;;;;;;5205293;28;20060;-73
2023/03/14 09:12:21;;;;;;;27.02;25.23;;;10.50;99.90;;;;;;5206376;28;20021;-67
2023/03/14 09:14:51;;;;;;;28.40;26.58;;;10.50;99.90;;;;;;5205130;28;20389;-75
2023/03/14 09:17:24;;;;;;;27.95;26.23;;;10.90;99.90;;;;;;5206366;28;20052;-75
2023/03/14 09:19:55;;;;;;;26.02;24.33;;;10.60;99.90;;;;;;5206338;28;20033;-76
2023/03/14 09:22:26;;;;;;;29.63;27.83;;;10.80;99.90;;;;;;5206097;28;20056;-74
2023/03/14 09:24:56;;;;;;;31.35;29.52;;;11.20;99.90;;;;;;5206199;28;20092;-75
2023/03/14 09:27:27;;;;;;;26.42;24.83;;;11.70;99.90;;;;;;5206289;28;20458;-69
2023/03/14 09:29:58;;;;;;;29.85;28.17;;;11.80;99.90;;;;;;5206074;28;20030;-75
2023/03/14 09:32:31;;;;;;;33.28;31.35;;;11.70;99.90;;;;;;5206017;28;20095;-77
2023/03/14 09:35:02;;;;;;;30.38;28.67;;;11.80;99.90;;;;;;5206146;28;20052;-75
2023/03/14 09:37:33;;;;;;;24.60;23.20;;;11.40;99.90;;;;;;5205860;28;20067;-71
2023/03/14 09:40:10;;;;;;;25.98;24.38;;;11.10;99.90;;;;;;5205967;28;20029;-72
2023/03/14 09:42:41;;;;;;;24.80;23.40;;;10.40;99.90;;;;;;5205944;28;20029;-69
2023/03/14 09:45:23;;;;;;;23.98;22.58;;;10.30;99.90;;;;;;5205891;28;20462;-72
2023/03/14 09:47:56;;;;;;;23.63;22.13;;;10.70;99.90;;;;;;5205738;28;20036;-72
2023/03/14 09:50:39;;;;;;;25.55;23.95;;;11.70;99.90;;;;;;5205958;28;20366;-72
2023/03/14 09:53:18;;;;;;;28.27;26.63;;;11.70;99.90;;;;;;5205635;28;20060;-72
2023/03/14 09:55:51;;;;;;;28.52;26.80;;;11.90;99.90;;;;;;5205397;28;20040;-71
2023/03/14 09:58:24;;;;;;;30.58;28.88;;;12.30;99.90;;;;;;5205695;28;20365;-72
2023/03/14 10:00:58;;;;;;;29.15;27.60;;;12.40;99.90;;;;;;5205718;28;20104;-72
2023/03/14 10:03:35;;;;;;;31.48;29.77;;;12.20;99.90;;;;;;5205025;28;20111;-70
2023/03/14 10:06:13;;;;;;;32.13;30.33;;;11.60;99.90;;;;;;5205373;28;20496;-69
2023/03/14 10:08:45;;;;;;;30.45;28.65;;;11.80;99.90;;;;;;5188361;28;20068;-72
2023/03/14 10:11:17;;;;;;;31.70;29.85;;;12.10;99.90;;;;;;5204264;28;20033;-73
2023/03/14 10:13:57;;;;;;;33.85;31.75;;;11.50;99.90;;;;;;5205487;28;20373;-73
2023/03/14 10:16:30;;;;;;;32.27;30.47;;;11.80;99.90;;;;;;5205596;28;20033;-73
2023/03/14 10:19:10;;;;;;;31.48;29.60;;;12.20;99.90;;;;;;5205488;28;20271;-74
2023/03/14 10:21:44;;;;;;;30.95;29.27;;;12.70;99.90;;;;;;5205627;28;20033;-72
2023/03/14 10:24:30;;;;;;;35.30;32.90;;;12.80;99.90;;;;;;5205316;28;20053;-70
2023/03/14 10:27:05;;;;;;;31.63;29.75;;;12.60;99.90;;;;;;5204524;28;20029;-73
2023/03/14 10:29:52;;;;;;;30.50;28.80;;;12.90;99.90;;;;;;5205455;28;20397;-70
2023/03/14 10:32:31;;;;;;;31.23;29.55;;;12.60;99.90;;;;;;5204042;28;20022;-72
2023/03/14 10:35:18;;;;;;;32.40;30.63;;;12.80;99.90;;;;;;5203808;28;20553;-70
2023/03/14 10:37:55;;;;;;;33.10;31.30;;;12.50;99.90;;;;;;5204781;28;20403;-68
2023/03/14 10:40:31;;;;;;;33.78;31.52;;;12.80;99.90;;;;;;5205434;28;20030;-69
2023/03/14 10:43:05;;;;;;;30.95;29.02;;;12.60;99.90;;;;;;5205092;28;20029;-74
2023/03/14 10:45:43;;;;;;;29.50;27.75;;;12.10;99.90;;;;;;5203503;28;20100;-75
2023/03/14 10:48:42;;;;;;;29.00;27.40;;;12.20;99.90;;;;;;5205239;28;20018;-75
2023/03/14 10:51:16;;;;;;;31.05;29.25;;;12.50;99.90;;;;;;5185733;28;20045;-75
2023/03/14 10:54:02;;;;;;;29.67;27.90;;;12.90;99.90;;;;;;5208869;28;20041;-75
2023/03/14 10:56:37;;;;;;;28.63;27.02;;;12.30;99.90;;;;;;5209151;28;20009;-71
2023/03/14 10:59:14;;;;;;;32.42;30.63;;;12.40;99.90;;;;;;5208978;28;20033;-74
2023/03/14 11:02:19;;;;;;;32.70;30.80;;;12.40;99.90;;;;;;5207729;28;20025;-74
2023/03/14 11:05:24;;;;;;;28.35;26.65;;;12.70;99.90;;;;;;5195003;28;20044;-73
2023/03/14 11:08:06;;;;;;;27.35;25.73;;;12.70;99.90;;;;;;5194555;28;20508;-74
2023/03/14 11:10:42;;;;;;;27.63;26.05;;;12.90;99.90;;;;;;5208911;28;20042;-74
2023/03/14 11:13:58;;;;;;;29.30;27.52;;;12.80;99.90;;;;;;5208701;28;20049;-73
2023/03/14 11:16:43;;;;;;;29.23;27.48;;;12.10;99.90;;;;;;5164590;28;20057;-72
2023/03/14 11:19:33;;;;;;;30.83;29.00;;;12.40;99.90;;;;;;5208715;28;20424;-74
2023/03/14 11:22:10;;;;;;;;;;;12.30;99.90;;;;;;5209076;28;20069;-75
2023/03/14 11:25:25;;;;;;;30.90;29.17;;;11.50;99.90;;;;;;5208378;28;19912;-74
2023/03/14 11:28:17;;;;;;;29.35;27.67;;;12.90;99.90;;;;;;5125424;29;20032;-75
2023/03/14 11:30:54;;;;;;;29.02;27.40;;;13.20;99.90;;;;;;5206618;28;20073;-77
2023/03/14 11:33:35;;;;;;;29.67;27.48;;;13.20;99.90;;;;;;5207354;28;20041;-76
2023/03/14 11:36:19;;;;;;;32.78;30.55;;;12.70;99.90;;;;;;5208146;28;20413;-70
2023/03/14 11:38:58;;;;;;;27.50;25.77;;;12.80;99.90;;;;;;5208193;28;20025;-79
2023/03/14 11:41:52;;;;;;;25.52;23.95;;;13.30;99.90;;;;;;5208863;28;20052;-76
2023/03/14 11:44:39;;;;;;;26.23;24.73;;;13.20;99.90;;;;;;5208370;28;20022;-80
2023/03/14 11:47:18;;;;;;;23.40;22.00;;;13.00;99.90;;;;;;5208305;28;20104;-70
2023/03/14 11:49:56;;;;;;;25.65;23.98;;;13.30;99.90;;;;;;5206155;28;20134;-69
2023/03/14 11:52:27;;;;;;;26.10;24.50;;;12.50;99.90;;;;;;5207506;28;20470;-71
2023/03/14 11:55:25;;;;;;;24.52;23.13;;;13.40;99.90;;;;;;5207096;28;20036;-80
2023/03/14 11:58:01;;;;;;;38.72;36.40;;;13.00;99.90;;;;;;5208075;28;20025;-72
2023/03/14 12:00:32;;;;;;;24.60;23.27;;;13.70;99.90;;;;;;5209143;28;20025;-78
2023/03/14 12:03:14;;;;;;;27.42;25.63;;;13.80;99.90;;;;;;5207602;28;20032;-79
2023/03/14 12:06:16;;;;;;;26.70;24.90;;;13.80;99.90;;;;;;5208066;28;20040;-70
2023/03/14 12:08:52;;;;;;;23.17;21.88;;;12.80;99.90;;;;;;5207784;28;20071;-71
2023/03/14 12:11:46;;;;;;;25.80;24.42;;;12.70;99.90;;;;;;5207958;28;20108;-68
2023/03/14 12:14:23;;;;;;;25.42;23.75;;;12.60;99.90;;;;;;5207650;28;20045;-78
2023/03/14 12:17:03;;;;;;;29.63;27.90;;;13.50;99.90;;;;;;5206136;28;20017;-69
2023/03/14 12:19:39;;;;;;;28.25;26.55;;;11.90;99.90;;;;;;5207675;28;20095;-79
2023/03/14 12:22:19;;;;;;;29.70;27.95;;;12.30;99.90;;;;;;5207600;28;20469;-72
2023/03/14 12:25:04;;;;;;;26.70;25.23;;;12.90;99.90;;;;;;5207650;28;20025;-76
2023/03/14 12:27:45;;;;;;;26.77;25.17;;;13.70;99.90;;;;;;5207308;28;20139;-78
2023/03/14 12:30:33;;;;;;;28.70;27.00;;;11.60;99.90;;;;;;5207338;28;20084;-79
2023/03/14 12:33:10;;;;;;;27.90;26.40;;;13.60;99.90;;;;;;5207092;28;20479;-71
2023/03/14 12:35:47;;;;;;;27.27;25.67;;;13.70;99.90;;;;;;5207325;28;20042;-74
2023/03/14 12:38:42;;;;;;;29.20;27.48;;;13.50;99.90;;;;;;5205990;28;20034;-73
2023/03/14 12:41:29;;;;;;;30.02;28.20;;;11.40;99.90;;;;;;5207148;28;20036;-77
2023/03/14 12:44:28;;;;;;;30.27;28.40;;;12.50;99.90;;;;;;5207068;28;20029;-73
2023/03/14 12:47:00;;;;;;;28.20;26.60;;;11.70;99.90;;;;;;5206980;28;20140;-74
2023/03/14 12:49:39;;;;;;;28.05;26.35;;;12.20;99.90;;;;;;5207025;28;20028;-75
2023/03/14 12:52:35;;;;;;;27.85;26.15;;;12.60;99.90;;;;;;5206831;28;20033;-75
2023/03/14 12:55:57;;;;;;;29.08;27.38;;;12.30;99.90;;;;;;5206757;28;20025;-69
2023/03/14 12:58:55;;;;;;;27.48;25.90;;;12.20;99.90;;;;;;5189100;28;20030;-80
2023/03/14 13:01:26;;;;;;;26.98;25.38;;;12.20;99.90;;;;;;5206721;28;20061;-80
2023/03/14 13:04:02;;;;;;;26.83;25.23;;;12.70;99.90;;;;;;5206698;28;20045;-79
2023/03/14 13:07:01;;;;;;;27.52;25.98;;;12.70;99.90;;;;;;5205376;28;20120;-69
2023/03/14 13:09:32;;;;;;;31.60;29.90;;;12.00;99.90;;;;;;5206201;28;20051;-68